Time;durP1;ratioP1;P1;durP2;ratioP2;P2;SDS_P1;SDS_P2;PMS_P1;PMS_P2;Temp;Humidity;BMP_temperature;BMP_pressure;BME280_temperature;BME280_humidity;BME280_pressure;Samples;Min_cycle;Max_cycle;Signal;HPM_P1;HPM_P2
2022/05/20 00:00:32;;;;;;;;;;;;;;;22.35;39.33;101792.91;4905161;29;20562;-77
2022/05/20 00:03:17;;;;;;;;;;;;;;;22.33;37.02;101800.78;4923940;28;19915;-77
2022/05/20 00:06:02;;;;;;;;;;;;;;;22.20;36.55;101796.59;4918607;29;19915;-79
2022/05/20 00:08:46;;;;;;;;;;;;;;;22.09;37.03;101796.41;4937314;29;19910;-79
2022/05/20 00:11:30;;;;;;;;;;;;;;;22.03;37.31;101798.66;4918751;29;20377;-79
2022/05/20 00:14:15;;;;;;;;;;;;;;;22.03;38.12;101798.66;4918739;29;20369;-78
2022/05/20 00:17:04;;;;;;;;;;;;;;;22.29;38.96;101799.94;4933428;29;19919;-80
2022/05/20 00:19:48;;;;;;;;;;;;;;;22.49;39.49;101804.25;4933728;29;19915;-78
2022/05/20 00:22:33;;;;;;;;;;;;;;;22.63;38.90;101810.03;4928141;29;20284;-78
2022/05/20 00:28:26;;;;;;;;;;;;;;;22.94;39.45;101801.47;4915848;29;19915;-78
2022/05/20 00:31:11;;;;;;;;;;;;;;;23.12;39.40;101809.25;4923753;29;19919;-78
2022/05/20 00:33:56;;;;;;;;;;;;;;;23.24;39.15;101809.84;4918327;29;20369;-78
2022/05/20 00:36:40;;;;;;;;;;;;;;;23.34;39.02;101809.19;4919362;29;19923;-79
2022/05/20 00:39:25;;;;;;;;;;;;;;;23.40;38.70;101804.09;4922905;29;19915;-78
2022/05/20 00:42:14;;;;;;;;;;;;;;;23.39;37.89;101796.94;4932355;29;20308;-78
2022/05/20 00:44:58;;;;;;;;;;;;;;;23.45;38.56;101801.03;4923669;29;19915;-79
2022/05/20 00:47:42;;;;;;;;;;;;;;;23.39;38.09;101792.19;4918322;29;19915;-78
2022/05/20 00:50:27;;;;;;;;;;;;;;;23.35;37.31;101782.22;4918106;29;19915;-77
2022/05/20 00:53:12;;;;;;;;;;;;;;;23.28;38.24;101791.25;4918057;29;19918;-78
2022/05/20 00:55:58;;;;;;;;;;;;;;;23.32;37.65;101791.28;4931175;29;19915;-78
2022/05/20 00:58:42;;;;;;;;;;;;;;;23.44;38.62;101788.28;4936496;29;19915;-78
2022/05/20 01:01:28;;;;;;;;;;;;;;;23.51;38.63;101788.44;4919626;29;20296;-78
2022/05/20 01:04:13;;;;;;;;;;;;;;;23.56;38.19;101790.06;4924964;29;19915;-78
2022/05/20 01:06:58;;;;;;;;;;;;;;;23.59;38.39;101783.75;4910765;29;19914;-78
2022/05/20 01:09:44;;;;;;;;;;;;;;;23.61;38.23;101781.41;4923685;29;19915;-77
2022/05/20 01:12:28;;;;;;;;;;;;;;;23.62;38.06;101775.44;4918528;29;19919;-77
2022/05/20 01:15:12;;;;;;;;;;;;;;;23.63;38.20;101771.50;4935310;29;19915;-77
2022/05/20 01:17:57;;;;;;;;;;;;;;;23.64;38.27;101770.31;4911474;23;19924;-74
2022/05/20 01:20:49;;;;;;;;;;;;;;;23.63;38.28;101774.28;4906031;29;19916;-75
2022/05/20 01:23:34;;;;;;;;;;;;;;;23.65;38.24;101774.72;4898110;29;20374;-74
2022/05/20 01:26:20;;;;;;;;;;;;;;;23.66;38.19;101769.97;4898415;29;19919;-75
2022/05/20 01:29:05;;;;;;;;;;;;;;;23.49;38.21;101768.56;4911400;29;19915;-74
2022/05/20 01:31:51;;;;;;;;;;;;;;;23.58;38.01;101762.69;4913278;29;20235;-74
2022/05/20 01:34:35;;;;;;;;;;;;;;;23.42;37.44;101760.09;4907499;29;19919;-75
2022/05/20 01:37:20;;;;;;;;;;;;;;;23.50;38.36;101763.81;4900930;29;19919;-75
2022/05/20 01:40:07;;;;;;;;;;;;;;;23.57;38.68;101763.91;4926505;29;19915;-74
2022/05/20 01:43:03;;;;;;;;;;;;;;;23.60;38.29;101760.34;4914475;29;19915;-74
2022/05/20 01:45:52;;;;;;;;;;;;;;;23.58;38.38;101757.94;4912160;29;19923;-75
2022/05/20 01:48:48;;;;;;;;;;;;;;;23.61;38.45;101759.19;4902894;29;19926;-75
2022/05/20 01:51:38;;;;;;;;;;;;;;;23.59;37.74;101754.00;4896936;29;19919;-75
2022/05/20 01:54:27;;;;;;;;;;;;;;;23.39;37.52;101756.09;4913853;29;19923;-75
2022/05/20 01:57:17;;;;;;;;;;;;;;;23.40;38.53;101756.91;4897064;29;19915;-75
2022/05/20 02:00:11;;;;;;;;;;;;;;;23.48;38.77;101761.41;4896573;29;20298;-75
2022/05/20 02:03:03;;;;;;;;;;;;;;;23.21;37.98;101751.50;4900303;29;19916;-75
2022/05/20 02:05:55;;;;;;;;;;;;;;;22.91;38.27;101748.69;4910748;29;19915;-75
2022/05/20 02:08:41;;;;;;;;;;;;;;;22.90;39.26;101750.69;4919150;29;19915;-75
2022/05/20 02:11:35;;;;;;;;;;;;;;;22.77;39.42;101754.03;4897193;29;19915;-75
2022/05/20 02:14:35;;;;;;;;;;;;;;;22.72;39.33;101755.13;4897018;29;19919;-75
2022/05/20 02:17:19;;;;;;;;;;;;;;;22.96;39.73;101751.13;4912270;29;20378;-75
2022/05/20 02:20:10;;;;;;;;;;;;;;;23.12;39.65;101743.44;4907536;29;19915;-75
2022/05/20 02:22:56;;;;;;;;;;;;;;;23.23;39.59;101743.59;4896741;29;20363;-73
2022/05/20 02:25:46;;;;;;;;;;;;;;;23.31;39.42;101750.84;4899150;29;20374;-75
2022/05/20 02:28:37;;;;;;;;;;;;;;;23.36;39.16;101745.75;4897183;29;19920;-75
2022/05/20 02:31:25;;;;;;;;;;;;;;;23.39;38.92;101753.31;4892770;29;19915;-75
2022/05/20 02:34:10;;;;;;;;;;;;;;;23.43;38.97;101750.59;4897447;29;19920;-74
2022/05/20 02:36:54;;;;;;;;;;;;;;;23.42;38.89;101749.78;4897875;29;19915;-74
2022/05/20 02:39:39;;;;;;;;;;;;;;;23.43;38.89;101747.81;4905446;29;19915;-74
2022/05/20 02:42:23;;;;;;;;;;;;;;;23.42;39.09;101752.56;4912954;29;19919;-74
2022/05/20 02:45:08;;;;;;;;;;;;;;;23.43;38.77;101751.38;4897536;29;20302;-74
2022/05/20 02:47:53;;;;;;;;;;;;;;;23.42;38.76;101747.00;4895441;29;20386;-75
2022/05/20 02:50:37;;;;;;;;;;;;;;;23.42;38.81;101741.47;4903414;29;20322;-76
2022/05/20 02:53:21;;;;;;;;;;;;;;;23.42;39.07;101743.44;4910991;29;19919;-75
2022/05/20 02:56:06;;;;;;;;;;;;;;;23.42;38.81;101746.22;4896448;29;19916;-74
2022/05/20 03:04:58;;;;;;;;;;;;;;;23.41;38.46;101739.09;4913119;29;19915;-75
2022/05/20 03:07:42;;;;;;;;;;;;;;;23.41;38.84;101733.53;4894276;29;19916;-75
2022/05/20 03:10:28;;;;;;;;;;;;;;;23.42;38.75;101738.69;4907099;29;19920;-75
2022/05/20 03:13:13;;;;;;;;;;;;;;;23.40;38.67;101743.03;4900395;29;19919;-75
2022/05/20 03:15:57;;;;;;;;;;;;;;;22.81;36.97;101746.53;4896319;29;20398;-74
2022/05/20 03:18:42;;;;;;;;;;;;;;;22.26;39.51;101740.47;4896916;29;19915;-75
2022/05/20 03:21:27;;;;;;;;;;;;;;;22.21;39.29;101753.84;4914272;29;19915;-74
2022/05/20 03:24:12;;;;;;;;;;;;;;;21.90;40.49;101752.84;4899885;29;20379;-74
2022/05/20 03:26:57;;;;;;;;;;;;;;;21.64;41.15;101755.50;4903467;29;19915;-74
2022/05/20 03:29:41;;;;;;;;;;;;;;;21.48;41.66;101760.34;4912329;29;19915;-74
2022/05/20 03:32:26;;;;;;;;;;;;;;;21.42;41.76;101757.06;4917812;29;19915;-75
2022/05/20 03:35:11;;;;;;;;;;;;;;;21.31;42.56;101762.34;4910142;29;19915;-74
2022/05/20 03:37:55;;;;;;;;;;;;;;;21.25;42.35;101766.56;4906417;29;20002;-74
2022/05/20 03:40:40;;;;;;;;;;;;;;;21.18;42.81;101758.09;4912115;29;19915;-75
2022/05/20 03:43:24;;;;;;;;;;;;;;;21.16;42.27;101765.19;4897484;29;19923;-74
2022/05/20 03:46:09;;;;;;;;;;;;;;;20.96;42.46;101767.06;4913148;29;19915;-74
2022/05/20 03:48:53;;;;;;;;;;;;;;;20.72;42.77;101768.09;4902003;29;19918;-74
2022/05/20 03:51:38;;;;;;;;;;;;;;;20.55;43.99;101762.13;4900815;29;19916;-74
2022/05/20 03:54:23;;;;;;;;;;;;;;;20.62;43.93;101765.06;4900619;29;19919;-74
2022/05/20 03:57:09;;;;;;;;;;;;;;;20.59;44.30;101760.25;4911158;29;19915;-74
2022/05/20 03:59:53;;;;;;;;;;;;;;;20.77;44.04;101769.78;4899524;29;19923;-74
2022/05/20 04:02:37;;;;;;;;;;;;;;;20.91;43.76;101759.06;4915433;29;19915;-74
2022/05/20 04:05:22;;;;;;;;;;;;;;;20.92;43.95;101763.44;4902441;29;19915;-75
2022/05/20 04:08:07;;;;;;;;;;;;;;;20.83;43.95;101771.09;4898746;29;19915;-75
2022/05/20 04:10:52;;;;;;;;;;;;;;;20.87;44.55;101777.53;4901674;29;19918;-75
2022/05/20 04:13:39;;;;;;;;;;;;;;;20.82;44.56;101775.03;4913084;29;19919;-74
2022/05/20 04:16:23;;;;;;;;;;;;;;;20.71;44.43;101771.22;4932385;29;19923;-74
2022/05/20 04:19:08;;;;;;;;;;;;;;;20.59;44.10;101780.38;4917020;29;19915;-75
2022/05/20 04:21:54;;;;;;;;;;;;;;;20.56;44.20;101774.78;4900546;29;19919;-75
2022/05/20 04:24:38;;;;;;;;;;;;;;;20.42;45.40;101773.25;4908403;29;20382;-75
2022/05/20 04:27:23;;;;;;;;;;;;;;;20.53;44.30;101781.81;4890477;29;20322;-76
2022/05/20 04:30:08;;;;;;;;;;;;;;;20.50;45.67;101782.53;4900340;29;19915;-75
2022/05/20 04:32:52;;;;;;;;;;;;;;;20.52;45.24;101776.66;4919332;29;19919;-74
2022/05/20 04:35:37;;;;;;;;;;;;;;;20.46;45.70;101776.13;4888469;29;19915;-74
2022/05/20 04:38:22;;;;;;;;;;;;;;;20.43;45.80;101769.34;4897460;29;19915;-75
2022/05/20 04:47:16;;;;;;;;;;;;;;;20.73;45.12;101777.97;4899163;29;19915;-74
2022/05/20 04:50:01;;;;;;;;;;;;;;;20.85;44.67;101779.84;4905168;29;19915;-74
2022/05/20 04:52:45;;;;;;;;;;;;;;;20.96;44.64;101778.13;4905467;29;19915;-74
2022/05/20 04:55:30;;;;;;;;;;;;;;;21.08;44.40;101783.53;4899386;29;20290;-74
2022/05/20 04:58:14;;;;;;;;;;;;;;;21.21;44.37;101778.72;4898359;29;19919;-74
2022/05/20 05:00:58;;;;;;;;;;;;;;;21.21;44.59;101779.53;4910708;29;20298;-74
2022/05/20 05:03:43;;;;;;;;;;;;;;;21.18;45.27;101783.00;4901071;29;19915;-74
2022/05/20 05:06:27;;;;;;;;;;;;;;;21.30;45.16;101791.19;4898335;29;19915;-74
2022/05/20 05:09:12;;;;;;;;;;;;;;;21.18;45.26;101787.75;4904217;29;19919;-75
2022/05/20 05:11:56;;;;;;;;;;;;;;;21.36;44.87;101786.19;4907943;29;19923;-75
2022/05/20 05:14:44;;;;;;;;;;;;;;;21.52;44.35;101794.41;4906847;29;19919;-74
2022/05/20 05:20:32;;;;;;;;;;;;;;;21.66;43.46;101800.25;4898917;29;19920;-75
2022/05/20 05:23:19;;;;;;;;;;;;;;;21.80;43.77;101805.28;4895554;29;19915;-75
2022/05/20 05:26:03;;;;;;;;;;;;;;;21.94;43.44;101813.91;4913905;29;20502;-76
2022/05/20 05:28:48;;;;;;;;;;;;;;;22.05;42.99;101807.41;4899534;29;19916;-74
2022/05/20 05:31:33;;;;;;;;;;;;;;;22.00;43.10;101810.47;4896608;29;19915;-81
2022/05/20 05:34:17;;;;;;;;;;;;;;;21.99;43.28;101813.63;4910203;29;19919;-76
2022/05/20 05:37:02;;;;;;;;;;;;;;;21.91;43.16;101818.16;4915478;29;19919;-75
2022/05/20 05:39:47;;;;;;;;;;;;;;;22.04;42.93;101825.22;4916320;29;19915;-74
2022/05/20 05:42:32;;;;;;;;;;;;;;;22.03;43.47;101826.38;4914875;29;20709;-75
2022/05/20 05:45:19;;;;;;;;;;;;;;;22.10;42.95;101825.69;4915616;29;19915;-74
2022/05/20 05:48:05;;;;;;;;;;;;;;;22.11;42.80;101828.09;4914597;29;19923;-75
2022/05/20 05:50:50;;;;;;;;;;;;;;;22.16;43.38;101827.00;4904443;29;19915;-75
2022/05/20 05:53:34;;;;;;;;;;;;;;;22.20;42.52;101821.53;4908245;29;19923;-74
2022/05/20 05:56:19;;;;;;;;;;;;;;;22.15;42.06;101825.38;4916865;29;19915;-73
2022/05/20 05:59:04;;;;;;;;;;;;;;;22.16;40.54;101825.03;4914398;29;19919;-73
2022/05/20 06:01:48;;;;;;;;;;;;;;;22.17;41.20;101821.09;4907992;29;19915;-73
2022/05/20 06:04:32;;;;;;;;;;;;;;;22.24;41.17;101819.63;4897672;29;19915;-73
2022/05/20 06:07:17;;;;;;;;;;;;;;;22.25;40.60;101813.69;4891462;29;19915;-73
2022/05/20 06:10:02;;;;;;;;;;;;;;;22.28;40.92;101826.03;4899800;29;19915;-74
2022/05/20 06:12:47;;;;;;;;;;;;;;;22.22;40.72;101816.41;4897374;29;19915;-74
2022/05/20 06:15:31;;;;;;;;;;;;;;;22.25;40.35;101818.47;4896249;29;19915;-74
2022/05/20 06:18:16;;;;;;;;;;;;;;;22.34;40.48;101824.56;4848068;29;1453315;-74
2022/05/20 06:21:00;;;;;;;;;;;;;;;22.37;39.09;101826.59;4899103;29;19915;-73
2022/05/20 06:23:45;;;;;;;;;;;;;;;22.42;38.72;101827.09;4896581;29;20414;-74
2022/05/20 06:26:30;;;;;;;;;;;;;;;22.51;39.17;101824.88;4900871;29;19915;-74
2022/05/20 06:29:15;;;;;;;;;;;;;;;22.57;39.04;101825.38;4897883;29;20386;-74
2022/05/20 06:31:59;;;;;;;;;;;;;;;22.57;38.21;101826.19;4890334;29;19916;-74
2022/05/20 06:40:55;;;;;;;;;;;;;;;22.69;37.74;101821.63;4901229;29;19919;-73
2022/05/20 06:43:40;;;;;;;;;;;;;;;22.81;37.55;101816.69;4898498;29;19920;-73
2022/05/20 06:46:25;;;;;;;;;;;;;;;22.85;36.65;101820.34;4894366;29;19919;-74
2022/05/20 06:49:10;;;;;;;;;;;;;;;22.89;35.40;101828.72;4896016;29;19916;-74
2022/05/20 06:51:56;;;;;;;;;;;;;;;23.00;36.83;101830.50;4910832;29;19949;-73
2022/05/20 06:54:41;;;;;;;;;;;;;;;23.13;37.72;101830.28;4913920;29;20297;-74
2022/05/20 06:57:25;;;;;;;;;;;;;;;23.18;37.91;101833.53;4905884;29;19915;-74
2022/05/20 07:00:11;;;;;;;;;;;;;;;23.24;37.03;101832.03;4896442;29;19915;-74
2022/05/20 07:02:56;;;;;;;;;;;;;;;23.28;35.88;101834.84;4911026;29;19915;-73
2022/05/20 07:05:40;;;;;;;;;;;;;;;23.36;36.75;101837.38;4896101;29;19915;-74
2022/05/20 07:08:25;;;;;;;;;;;;;;;23.49;36.91;101832.41;4897979;29;19919;-73
2022/05/20 07:11:10;;;;;;;;;;;;;;;23.53;36.33;101836.03;4897495;29;19915;-73
2022/05/20 07:13:56;;;;;;;;;;;;;;;23.57;36.87;101836.09;4901627;29;20414;-74
2022/05/20 07:16:40;;;;;;;;;;;;;;;23.65;36.89;101833.03;4959146;23;19899;-80
2022/05/20 07:19:25;;;;;;;;;;;;;;;23.69;36.96;101838.63;4932421;29;20297;-78
2022/05/20 07:22:09;;;;;;;;;;;;;;;23.74;36.62;101832.75;4919733;29;19915;-79
2022/05/20 07:24:55;;;;;;;;;;;;;;;23.74;37.19;101828.00;4918517;29;19915;-80
2022/05/20 07:27:39;;;;;;;;;;;;;;;23.84;36.05;101827.31;4918325;29;20297;-79
2022/05/20 07:30:23;;;;;;;;;;;;;;;23.81;36.14;101830.88;4930077;29;19922;-79
2022/05/20 07:33:08;;;;;;;;;;;;;;;23.94;36.58;101823.06;4902692;29;19915;-80
2022/05/20 07:35:53;;;;;;;;;;;;;;;24.11;36.68;101827.22;4917929;29;19915;-79
2022/05/20 07:38:37;;;;;;;;;;;;;;;24.08;36.29;101823.22;4916269;29;19915;-80
2022/05/20 07:41:23;;;;;;;;;;;;;;;24.14;36.34;101829.25;4918842;29;20397;-79
2022/05/20 07:44:07;;;;;;;;;;;;;;;24.09;34.99;101824.81;4923167;29;19915;-79
2022/05/20 07:46:52;;;;;;;;;;;;;;;24.20;35.77;101824.97;4901506;29;19920;-78
2022/05/20 07:49:37;;;;;;;;;;;;;;;24.34;35.60;101819.56;4898690;29;19915;-79
2022/05/20 07:55:25;;;;;;;;;;;;;;;24.35;34.80;101815.59;4911519;29;19920;-80
2022/05/20 07:58:12;;;;;;;;;;;;;;;24.41;34.43;101825.19;4917549;29;19915;-80
2022/05/20 08:00:59;;;;;;;;;;;;;;;24.54;35.10;101822.91;4911562;29;19915;-79
2022/05/20 08:06:47;;;;;;;;;;;;;;;24.54;32.50;101823.72;4922168;29;20403;-79
2022/05/20 08:09:32;;;;;;;;;;;;;;;24.62;33.13;101824.59;4915810;29;19918;-78
2022/05/20 08:12:18;;;;;;;;;;;;;;;24.70;33.79;101818.69;4912288;29;19914;-79
2022/05/20 08:15:02;;;;;;;;;;;;;;;24.73;34.23;101819.13;4919638;29;19927;-79
2022/05/20 08:17:47;;;;;;;;;;;;;;;24.77;33.76;101815.19;4908534;29;19915;-78
2022/05/20 08:20:31;;;;;;;;;;;;;;;24.76;33.65;101812.78;4917992;29;20307;-78
2022/05/20 08:23:17;;;;;;;;;;;;;;;24.75;33.87;101806.41;4930483;29;19915;-78
2022/05/20 08:26:01;;;;;;;;;;;;;;;24.80;34.02;101810.81;4920078;29;19919;-78
2022/05/20 08:28:46;;;;;;;;;;;;;;;24.82;34.15;101805.69;4932175;29;19915;-78
2022/05/20 08:31:31;;;;;;;;;;;;;;;24.90;33.24;101807.34;4917372;29;19915;-78
2022/05/20 08:34:15;;;;;;;;;;;;;;;25.00;31.55;101798.28;4917574;29;20254;-78
2022/05/20 08:37:00;;;;;;;;;;;;;;;25.10;33.34;101803.09;4909169;29;19915;-79
2022/05/20 08:39:45;;;;;;;;;;;;;;;24.99;33.04;101805.03;4917341;29;19915;-79
2022/05/20 08:42:30;;;;;;;;;;;;;;;25.05;31.73;101797.91;4927125;29;19915;-79
2022/05/20 08:45:16;;;;;;;;;;;;;;;25.13;32.65;101799.56;4917431;29;19914;-78
2022/05/20 08:48:04;;;;;;;;;;;;;;;25.30;30.18;101793.28;4913092;29;19915;-78
2022/05/20 08:50:51;;;;;;;;;;;;;;;25.30;32.20;101795.28;4912008;29;19923;-78
2022/05/20 08:53:39;;;;;;;;;;;;;;;25.23;30.62;101793.25;4925633;29;19923;-78
2022/05/20 08:56:25;;;;;;;;;;;;;;;25.29;30.60;101791.72;4916768;29;19926;-78
2022/05/20 08:59:15;;;;;;;;;;;;;;;25.33;29.25;101791.72;4916654;29;20374;-78
2022/05/20 09:02:01;;;;;;;;;;;;;;;25.47;29.42;101789.00;4918615;29;20406;-78
2022/05/20 09:04:46;;;;;;;;;;;;;;;25.58;31.29;101794.66;4911099;29;20011;-78
2022/05/20 09:07:51;;;;;;;;;;;;;;;25.58;31.80;101781.53;4920373;29;19915;-78
2022/05/20 09:10:38;;;;;;;;;;;;;;;25.54;31.67;101778.69;4917275;29;19915;-77
2022/05/20 09:16:31;;;;;;;;;;;;;;;25.50;30.95;101775.09;4912623;29;19915;-77
2022/05/20 09:19:23;;;;;;;;;;;;;;;25.57;30.74;101779.13;4915945;29;19915;-78
2022/05/20 09:22:12;;;;;;;;;;;;;;;25.63;30.31;101769.19;4916241;29;19915;-78
2022/05/20 09:24:57;;;;;;;;;;;;;;;25.77;30.57;101769.25;4918105;29;19915;-77
2022/05/20 09:27:42;;;;;;;;;;;;;;;25.85;30.95;101776.44;4916419;29;19915;-78
2022/05/20 09:30:37;;;;;;;;;;;;;;;25.85;31.51;101768.09;4912436;29;19915;-78
2022/05/20 09:33:23;;;;;;;;;;;;;;;25.85;31.43;101768.09;4931679;29;19922;-79
2022/05/20 09:36:08;;;;;;;;;;;;;;;25.79;30.84;101764.88;4910625;29;20669;-79
2022/05/20 09:39:07;;;;;;;;;;;;;;;25.92;30.88;101760.53;4916688;29;19919;-79
2022/05/20 09:41:53;;;;;;;;;;;;;;;25.90;30.93;101759.34;4916017;29;19919;-79
2022/05/20 09:44:40;;;;;;;;;;;;;;;25.93;31.02;101762.13;4914685;29;19919;-79
2022/05/20 09:47:28;;;;;;;;;;;;;;;25.90;31.82;101753.78;4917062;29;19915;-79
2022/05/20 09:50:22;;;;;;;;;;;;;;;26.03;31.23;101756.97;4900996;29;19915;-79
2022/05/20 09:53:33;;;;;;;;;;;;;;;26.04;31.89;101753.00;4907219;29;19915;-78
2022/05/20 09:56:25;;;;;;;;;;;;;;;26.12;31.71;101749.81;4926662;28;19919;-78
2022/05/20 09:59:09;;;;;;;;;;;;;;;26.20;31.90;101745.84;4912596;29;19915;-78
2022/05/20 10:01:57;;;;;;;;;;;;;;;26.20;31.75;101740.28;4922742;29;20294;-77
2022/05/20 10:04:42;;;;;;;;;;;;;;;26.19;32.19;101743.44;4923311;29;19918;-77
2022/05/20 10:07:45;;;;;;;;;;;;;;;26.19;31.97;101735.09;4924133;29;19922;-78
2022/05/20 10:10:42;;;;;;;;;;;;;;;26.30;30.84;101736.72;4929962;29;19915;-78
2022/05/20 10:13:37;;;;;;;;;;;;;;;26.56;31.39;101734.72;4915963;29;19915;-80
2022/05/20 10:16:25;;;;;;;;;;;;;;;26.76;31.22;101731.13;4932035;29;19923;-80
2022/05/20 10:19:18;;;;;;;;;;;;;;;26.79;31.30;101727.50;4921130;29;20882;-80
2022/05/20 10:22:22;;;;;;;;;;;;;;;26.72;32.11;101729.50;4919833;29;19919;-80
2022/05/20 10:25:18;;;;;;;;;;;;;;;26.81;31.76;101716.75;4927852;28;19916;-78
2022/05/20 10:28:11;;;;;;;;;;;;;;;26.92;31.67;101716.72;4904813;29;19919;-79
2022/05/20 10:33:59;;;;;;;;;;;;;;;27.06;31.60;101702.75;4909462;29;19919;-79
2022/05/20 10:36:50;;;;;;;;;;;;;;;27.13;31.31;101702.72;4908975;29;19916;-77
2022/05/20 10:39:47;;;;;;;;;;;;;;;27.29;31.45;101693.06;4907816;29;19915;-78
2022/05/20 10:42:31;;;;;;;;;;;;;;;27.26;31.66;101693.91;4903829;29;19915;-78
2022/05/20 10:48:49;;;;;;;;;;;;;;;27.52;31.74;101685.81;4936675;28;19915;-79
2022/05/20 10:51:54;;;;;;;;;;;;;;;27.67;31.54;101680.94;4917768;29;19915;-79
2022/05/20 10:54:45;;;;;;;;;;;;;;;27.74;31.10;101675.28;4923404;29;20386;-78
2022/05/20 10:58:01;;;;;;;;;;;;;;;27.86;31.01;101672.00;4911463;29;19923;-78
2022/05/20 11:00:52;;;;;;;;;;;;;;;27.84;30.95;101676.41;4909898;29;19915;-79
2022/05/20 11:03:55;;;;;;;;;;;;;;;27.76;30.87;101674.88;4913405;29;19919;-79
2022/05/20 11:06:58;;;;;;;;;;;;;;;27.91;30.38;101670.78;4908425;29;20321;-78
2022/05/20 11:09:49;;;;;;;;;;;;;;;28.05;30.64;101668.66;4928493;28;19919;-78
2022/05/20 11:12:52;;;;;;;;;;;;;;;28.02;30.52;101672.28;4917790;29;19920;-78
2022/05/20 11:15:38;;;;;;;;;;;;;;;28.20;30.62;101660.97;4930748;28;19919;-78
2022/05/20 11:18:38;;;;;;;;;;;;;;;28.28;31.46;101653.31;4906792;29;20298;-78
2022/05/20 11:21:38;;;;;;;;;;;;;;;28.36;31.34;101652.03;4927019;29;19919;-77
2022/05/20 11:24:33;;;;;;;;;;;;;;;28.43;30.79;101660.38;4907756;29;19927;-79
2022/05/20 11:27:17;;;;;;;;;;;;;;;28.56;31.74;101647.44;4930540;28;19915;-77
2022/05/20 11:30:28;;;;;;;;;;;;;;;28.55;31.02;101645.84;4914280;29;19923;-78
2022/05/20 11:33:15;;;;;;;;;;;;;;;28.56;30.71;101641.84;4907500;29;19919;-79
2022/05/20 11:36:10;;;;;;;;;;;;;;;28.52;30.41;101641.09;4916148;29;20374;-78
2022/05/20 11:38:55;;;;;;;;;;;;;;;28.61;30.43;101627.38;4933808;28;19915;-79
2022/05/20 11:41:43;;;;;;;;;;;;;;;28.67;30.55;101620.13;4914158;29;19915;-77
2022/05/20 11:44:27;;;;;;;;;;;;;;;28.71;30.43;101609.66;4915725;29;20333;-79
2022/05/20 11:47:22;;;;;;;;;;;;;;;28.76;31.13;101614.84;4909277;29;20397;-78
2022/05/20 11:50:07;;;;;;;;;;;;;;;28.82;30.30;101615.97;4912359;29;19919;-80
2022/05/20 11:52:54;;;;;;;;;;;;;;;28.86;30.15;101619.50;4905312;29;19916;-78
2022/05/20 11:55:42;;;;;;;;;;;;;;;28.89;30.17;101615.09;4915981;29;19919;-81
2022/05/20 11:58:32;;;;;;;;;;;;;;;28.95;30.75;101612.63;4914618;29;20382;-79
2022/05/20 12:01:17;;;;;;;;;;;;;;;28.98;30.59;101606.19;4904951;29;19916;-78
2022/05/20 12:04:07;;;;;;;;;;;;;;;28.97;30.52;101604.56;4907658;29;20326;-78
2022/05/20 12:07:01;;;;;;;;;;;;;;;28.83;30.96;101594.38;4906139;29;19919;-77
2022/05/20 12:09:47;;;;;;;;;;;;;;;29.06;30.37;101590.84;4913452;29;20374;-79
2022/05/20 12:12:33;;;;;;;;;;;;;;;29.17;29.84;101597.09;4914072;29;19915;-78
2022/05/20 12:15:21;;;;;;;;;;;;;;;29.22;30.29;101591.03;4912181;29;20484;-79
2022/05/20 12:24:53;;;;;;;;;;;;;;;29.35;29.88;101582.88;4916319;29;20005;-77
2022/05/20 12:27:40;;;;;;;;;;;;;;;29.37;31.17;101581.22;4913698;29;19915;-77
2022/05/20 12:30:35;;;;;;;;;;;;;;;29.27;30.65;101573.75;4918357;29;19919;-79
2022/05/20 12:33:21;;;;;;;;;;;;;;;29.38;30.20;101568.81;4916105;29;19927;-77
2022/05/20 12:36:15;;;;;;;;;;;;;;;29.45;30.27;101557.50;4922691;29;19919;-79
2022/05/20 12:39:05;;;;;;;;;;;;;;;29.53;30.15;101567.38;4922050;29;19915;-77
2022/05/20 12:41:50;;;;;;;;;;;;;;;29.52;30.20;101570.59;4920418;29;19915;-77
2022/05/20 12:44:36;;;;;;;;;;;;;;;29.51;29.90;101561.38;4923300;29;20305;-79
2022/05/20 12:47:28;;;;;;;;;;;;;;;29.63;29.88;101557.19;4926622;28;19915;-80
2022/05/20 12:50:16;;;;;;;;;;;;;;;29.70;29.90;101543.84;4920459;29;19915;-78
2022/05/20 12:53:02;;;;;;;;;;;;;;;29.80;29.75;101538.50;4918769;29;19915;-79
2022/05/20 12:55:48;;;;;;;;;;;;;;;29.85;30.29;101532.38;4916490;29;19919;-79
2022/05/20 12:58:34;;;;;;;;;;;;;;;29.94;30.04;101532.66;4921617;29;19919;-79
2022/05/20 13:01:21;;;;;;;;;;;;;;;29.97;29.49;101531.81;4917670;29;19919;-76
2022/05/20 13:04:09;;;;;;;;;;;;;;;30.07;29.47;101531.59;4916255;29;19918;-79
2022/05/20 13:06:55;;;;;;;;;;;;;;;30.04;29.05;101532.47;4920182;29;19915;-79
2022/05/20 13:09:40;;;;;;;;;;;;;;;30.04;29.64;101526.06;4916391;29;19914;-79
2022/05/20 13:12:26;;;;;;;;;;;;;;;30.02;29.74;101517.28;4916225;29;20295;-78
2022/05/20 13:15:11;;;;;;;;;;;;;;;30.04;29.80;101512.03;4920019;29;19918;-74
2022/05/20 13:18:04;;;;;;;;;;;;;;;30.04;30.72;101514.81;4917269;29;20309;-78
2022/05/20 13:20:52;;;;;;;;;;;;;;;29.98;30.58;101514.53;4915047;29;19919;-78
2022/05/20 13:23:38;;;;;;;;;;;;;;;29.96;30.59;101508.56;4918636;29;19915;-78
2022/05/20 13:26:23;;;;;;;;;;;;;;;29.95;30.54;101511.78;4926464;29;19919;-78
2022/05/20 13:29:13;;;;;;;;;;;;;;;29.96;30.27;101500.16;4904905;29;19914;-77
2022/05/20 13:32:22;;;;;;;;;;;;;;;29.97;30.00;101500.94;4906792;29;19919;-78
2022/05/20 13:35:07;;;;;;;;;;;;;;;30.00;30.04;101491.66;4918309;28;19934;-77
2022/05/20 13:37:55;;;;;;;;;;;;;;;29.81;30.83;101492.41;4917990;29;20198;-78
2022/05/20 13:43:55;;;;;;;;;;;;;;;29.71;31.05;101469.72;4930785;28;19923;-82
2022/05/20 13:49:51;;;;;;;;;;;;;;;29.72;31.35;101467.69;4906185;29;19919;-82
2022/05/20 13:52:37;;;;;;;;;;;;;;;29.73;31.09;101460.88;4895194;29;19915;-82
2022/05/20 13:55:32;;;;;;;;;;;;;;;29.63;30.53;101454.25;4895255;29;20294;-82
2022/05/20 13:58:17;;;;;;;;;;;;;;;29.60;30.32;101451.53;4895964;29;19915;-82
2022/05/20 14:01:03;;;;;;;;;;;;;;;29.62;30.53;101452.66;4901230;29;19916;-81
2022/05/20 14:03:48;;;;;;;;;;;;;;;29.61;30.95;101441.91;4913300;29;19923;-83
2022/05/20 14:06:32;;;;;;;;;;;;;;;29.58;31.04;101431.53;4912637;29;19916;-82
2022/05/20 14:09:18;;;;;;;;;;;;;;;29.55;30.69;101424.78;4896054;29;19919;-82
2022/05/20 14:12:04;;;;;;;;;;;;;;;29.62;30.39;101432.25;4909591;29;20370;-81
2022/05/20 14:15:01;;;;;;;;;;;;;;;29.62;30.78;101429.44;4912443;29;20290;-80
2022/05/20 14:17:46;;;;;;;;;;;;;;;29.59;31.54;101422.69;4910171;29;19915;-82
2022/05/20 14:20:38;;;;;;;;;;;;;;;29.56;32.20;101422.75;4914209;29;19919;-81
2022/05/20 14:23:25;;;;;;;;;;;;;;;29.61;32.03;101416.66;4914835;29;19915;-80
2022/05/20 14:26:19;;;;;;;;;;;;;;;29.62;31.37;101412.63;4897842;29;20410;-80
2022/05/20 14:29:12;;;;;;;;;;;;;;;29.41;32.03;101405.38;4909653;29;19915;-81
2022/05/20 14:31:58;;;;;;;;;;;;;;;29.49;31.69;101392.06;4911751;29;20292;-80
2022/05/20 14:34:45;;;;;;;;;;;;;;;29.41;32.05;101382.97;4909293;29;19941;-81
2022/05/20 14:37:33;;;;;;;;;;;;;;;29.44;32.21;101384.94;4899609;29;20390;-81
2022/05/20 14:40:18;;;;;;;;;;;;;;;29.39;32.79;101399.44;4909600;29;20226;-81
2022/05/20 14:43:06;;;;;;;;;;;;;;;29.42;32.54;101384.56;4894387;29;19915;-81
2022/05/20 14:45:53;;;;;;;;;;;;;;;29.52;31.88;101383.56;4914469;29;19915;-81
2022/05/20 14:48:39;;;;;;;;;;;;;;;29.54;31.74;101377.53;4904400;29;19919;-81
2022/05/20 14:51:25;;;;;;;;;;;;;;;29.54;31.84;101371.94;4897433;29;20290;-81
2022/05/20 14:54:14;;;;;;;;;;;;;;;29.47;32.04;101374.84;4896396;29;20294;-81
2022/05/20 14:57:14;;;;;;;;;;;;;;;29.49;31.96;101372.44;4910953;29;19924;-81
2022/05/20 15:00:04;;;;;;;;;;;;;;;29.50;31.90;101371.22;4909075;29;19919;-81
2022/05/20 15:02:49;;;;;;;;;;;;;;;29.42;31.99;101367.75;4912409;29;20383;-81
2022/05/20 15:05:35;;;;;;;;;;;;;;;29.38;31.83;101361.41;4914147;29;20301;-81
2022/05/20 15:08:21;;;;;;;;;;;;;;;29.38;32.28;101361.41;4908193;29;19919;-81
2022/05/20 15:11:14;;;;;;;;;;;;;;;29.37;32.37;101354.22;4906939;29;20262;-82